sensor_id;sensor_type;location;lat;lon;timestamp;temperature;humidity
62339;DHT22;48368;53.406;6.214;2022-07-06T00:00:32;15.70;99.90
62339;DHT22;48368;53.406;6.214;2022-07-06T00:02:58;15.70;99.90
62339;DHT22;48368;53.406;6.214;2022-07-06T00:05:23;15.80;99.90
62339;DHT22;48368;53.406;6.214;2022-07-06T00:07:49;15.70;99.90
62339;DHT22;48368;53.406;6.214;2022-07-06T00:10:15;15.80;99.90
62339;DHT22;48368;53.406;6.214;2022-07-06T00:12:41;15.80;99.90
62339;DHT22;48368;53.406;6.214;2022-07-06T00:15:07;15.70;99.90
62339;DHT22;48368;53.406;6.214;2022-07-06T00:17:32;15.70;99.90
62339;DHT22;48368;53.406;6.214;2022-07-06T00:19:58;15.80;99.90
62339;DHT22;48368;53.406;6.214;2022-07-06T00:22:23;15.80;99.90
62339;DHT22;48368;53.406;6.214;2022-07-06T00:24:49;15.70;99.90
62339;DHT22;48368;53.406;6.214;2022-07-06T00:27:15;15.80;99.90
62339;DHT22;48368;53.406;6.214;2022-07-06T00:29:40;15.80;99.90
62339;DHT22;48368;53.406;6.214;2022-07-06T00:32:11;15.80;99.90
62339;DHT22;48368;53.406;6.214;2022-07-06T00:34:37;15.80;99.90
62339;DHT22;48368;53.406;6.214;2022-07-06T00:37:06;15.80;99.90
62339;DHT22;48368;53.406;6.214;2022-07-06T00:39:33;15.80;99.90
62339;DHT22;48368;53.406;6.214;2022-07-06T00:41:58;15.80;99.90
62339;DHT22;48368;53.406;6.214;2022-07-06T00:44:24;15.70;99.90
62339;DHT22;48368;53.406;6.214;2022-07-06T00:46:50;15.60;99.90
62339;DHT22;48368;53.406;6.214;2022-07-06T00:49:16;15.60;99.90
62339;DHT22;48368;53.406;6.214;2022-07-06T00:52:00;15.60;99.90
62339;DHT22;48368;53.406;6.214;2022-07-06T00:54:27;15.50;99.90
62339;DHT22;48368;53.406;6.214;2022-07-06T00:56:55;15.50;99.90
62339;DHT22;48368;53.406;6.214;2022-07-06T00:59:21;15.50;99.90
62339;DHT22;48368;53.406;6.214;2022-07-06T01:01:48;15.50;99.90
62339;DHT22;48368;53.406;6.214;2022-07-06T01:04:13;15.50;99.90
62339;DHT22;48368;53.406;6.214;2022-07-06T01:06:39;15.50;99.90
62339;DHT22;48368;53.406;6.214;2022-07-06T01:09:05;15.40;99.90
62339;DHT22;48368;53.406;6.214;2022-07-06T01:11:31;15.40;99.90
62339;DHT22;48368;53.406;6.214;2022-07-06T01:13:57;15.50;99.90
62339;DHT22;48368;53.406;6.214;2022-07-06T01:16:23;15.40;99.90
62339;DHT22;48368;53.406;6.214;2022-07-06T01:18:49;15.40;99.90
62339;DHT22;48368;53.406;6.214;2022-07-06T01:21:14;15.40;99.90
62339;DHT22;48368;53.406;6.214;2022-07-06T01:23:42;15.40;99.90
62339;DHT22;48368;53.406;6.214;2022-07-06T01:26:16;15.40;99.90
62339;DHT22;48368;53.406;6.214;2022-07-06T01:28:50;15.40;99.90
62339;DHT22;48368;53.406;6.214;2022-07-06T01:31:19;15.30;99.90
62339;DHT22;48368;53.406;6.214;2022-07-06T01:33:44;15.30;99.90
62339;DHT22;48368;53.406;6.214;2022-07-06T01:36:10;15.20;99.90
62339;DHT22;48368;53.406;6.214;2022-07-06T01:38:51;15.20;99.90
62339;DHT22;48368;53.406;6.214;2022-07-06T01:41:17;15.20;99.90
62339;DHT22;48368;53.406;6.214;2022-07-06T01:43:44;15.20;99.90
62339;DHT22;48368;53.406;6.214;2022-07-06T01:46:10;15.20;99.90
62339;DHT22;48368;53.406;6.214;2022-07-06T01:48:36;15.10;99.90
62339;DHT22;48368;53.406;6.214;2022-07-06T01:51:02;15.00;99.90
62339;DHT22;48368;53.406;6.214;2022-07-06T01:53:28;15.10;99.90
62339;DHT22;48368;53.406;6.214;2022-07-06T01:55:53;15.00;99.90
62339;DHT22;48368;53.406;6.214;2022-07-06T01:58:19;15.00;99.90
62339;DHT22;48368;53.406;6.214;2022-07-06T02:00:44;15.00;99.90
62339;DHT22;48368;53.406;6.214;2022-07-06T02:03:10;15.00;99.90
62339;DHT22;48368;53.406;6.214;2022-07-06T02:05:36;15.00;99.90
62339;DHT22;48368;53.406;6.214;2022-07-06T02:08:01;15.00;99.90
62339;DHT22;48368;53.406;6.214;2022-07-06T02:10:27;15.00;99.90
62339;DHT22;48368;53.406;6.214;2022-07-06T02:12:53;14.90;99.90
62339;DHT22;48368;53.406;6.214;2022-07-06T02:15:18;14.90;99.90
62339;DHT22;48368;53.406;6.214;2022-07-06T02:17:44;14.90;99.90
62339;DHT22;48368;53.406;6.214;2022-07-06T02:20:10;14.90;99.90
62339;DHT22;48368;53.406;6.214;2022-07-06T02:22:36;14.90;99.90
62339;DHT22;48368;53.406;6.214;2022-07-06T02:25:01;14.90;99.90
62339;DHT22;48368;53.406;6.214;2022-07-06T02:27:27;14.90;99.90
62339;DHT22;48368;53.406;6.214;2022-07-06T02:29:53;14.90;99.90
62339;DHT22;48368;53.406;6.214;2022-07-06T02:32:18;14.90;99.90
62339;DHT22;48368;53.406;6.214;2022-07-06T02:34:44;14.90;99.90
62339;DHT22;48368;53.406;6.214;2022-07-06T02:37:10;14.90;99.90
62339;DHT22;48368;53.406;6.214;2022-07-06T02:39:35;14.80;99.90
62339;DHT22;48368;53.406;6.214;2022-07-06T02:42:01;14.80;99.90
62339;DHT22;48368;53.406;6.214;2022-07-06T02:44:27;14.80;99.90
62339;DHT22;48368;53.406;6.214;2022-07-06T02:46:52;14.80;99.90
62339;DHT22;48368;53.406;6.214;2022-07-06T02:49:18;14.90;99.90
62339;DHT22;48368;53.406;6.214;2022-07-06T02:51:44;14.80;99.90
62339;DHT22;48368;53.406;6.214;2022-07-06T02:54:09;14.80;99.90
62339;DHT22;48368;53.406;6.214;2022-07-06T02:56:35;14.80;99.90
62339;DHT22;48368;53.406;6.214;2022-07-06T02:59:00;14.80;99.90
62339;DHT22;48368;53.406;6.214;2022-07-06T03:01:26;14.80;99.90
62339;DHT22;48368;53.406;6.214;2022-07-06T03:03:52;14.80;99.90
62339;DHT22;48368;53.406;6.214;2022-07-06T03:06:17;14.70;99.90
62339;DHT22;48368;53.406;6.214;2022-07-06T03:08:43;14.80;99.90
62339;DHT22;48368;53.406;6.214;2022-07-06T03:11:09;14.70;99.90
62339;DHT22;48368;53.406;6.214;2022-07-06T03:13:35;14.70;99.90
62339;DHT22;48368;53.406;6.214;2022-07-06T03:16:00;14.70;99.90
62339;DHT22;48368;53.406;6.214;2022-07-06T03:18:26;14.70;99.90
62339;DHT22;48368;53.406;6.214;2022-07-06T03:20:52;14.70;99.90
62339;DHT22;48368;53.406;6.214;2022-07-06T03:23:18;14.70;99.90
62339;DHT22;48368;53.406;6.214;2022-07-06T03:25:44;14.70;99.90
62339;DHT22;48368;53.406;6.214;2022-07-06T03:28:09;14.70;99.90
62339;DHT22;48368;53.406;6.214;2022-07-06T03:30:35;14.70;99.90
62339;DHT22;48368;53.406;6.214;2022-07-06T03:33:01;14.70;99.90
62339;DHT22;48368;53.406;6.214;2022-07-06T03:35:26;14.80;99.90
62339;DHT22;48368;53.406;6.214;2022-07-06T03:37:52;14.80;99.90
62339;DHT22;48368;53.406;6.214;2022-07-06T03:40:17;14.90;99.90
62339;DHT22;48368;53.406;6.214;2022-07-06T03:42:43;14.90;99.90
62339;DHT22;48368;53.406;6.214;2022-07-06T03:45:09;14.90;99.90
62339;DHT22;48368;53.406;6.214;2022-07-06T03:47:35;14.80;99.90
62339;DHT22;48368;53.406;6.214;2022-07-06T03:50:01;14.80;99.90
62339;DHT22;48368;53.406;6.214;2022-07-06T03:52:26;14.80;99.90
62339;DHT22;48368;53.406;6.214;2022-07-06T03:54:52;14.50;99.90
62339;DHT22;48368;53.406;6.214;2022-07-06T03:57:17;14.50;99.90
62339;DHT22;48368;53.406;6.214;2022-07-06T03:59:43;14.40;99.90
62339;DHT22;48368;53.406;6.214;2022-07-06T04:02:09;14.30;99.90
62339;DHT22;48368;53.406;6.214;2022-07-06T04:04:34;14.20;99.90
62339;DHT22;48368;53.406;6.214;2022-07-06T04:07:00;14.10;99.90
62339;DHT22;48368;53.406;6.214;2022-07-06T04:09:26;14.10;99.90
62339;DHT22;48368;53.406;6.214;2022-07-06T04:11:52;14.10;99.90
62339;DHT22;48368;53.406;6.214;2022-07-06T04:14:18;14.20;99.90
62339;DHT22;48368;53.406;6.214;2022-07-06T04:16:43;14.20;99.90
62339;DHT22;48368;53.406;6.214;2022-07-06T04:19:09;14.30;99.90
62339;DHT22;48368;53.406;6.214;2022-07-06T04:21:35;14.40;99.90
62339;DHT22;48368;53.406;6.214;2022-07-06T04:24:01;14.40;99.90
62339;DHT22;48368;53.406;6.214;2022-07-06T04:26:27;14.40;99.90
62339;DHT22;48368;53.406;6.214;2022-07-06T04:28:52;14.40;99.90
62339;DHT22;48368;53.406;6.214;2022-07-06T04:31:18;14.50;99.90
62339;DHT22;48368;53.406;6.214;2022-07-06T04:33:44;14.60;99.90
62339;DHT22;48368;53.406;6.214;2022-07-06T04:36:10;14.70;99.90
62339;DHT22;48368;53.406;6.214;2022-07-06T04:38:36;14.80;99.90
62339;DHT22;48368;53.406;6.214;2022-07-06T04:41:02;14.90;99.90
62339;DHT22;48368;53.406;6.214;2022-07-06T04:43:27;14.90;99.90
62339;DHT22;48368;53.406;6.214;2022-07-06T04:45:53;15.00;99.90
62339;DHT22;48368;53.406;6.214;2022-07-06T04:48:19;15.00;99.90
62339;DHT22;48368;53.406;6.214;2022-07-06T04:50:44;15.10;99.90
62339;DHT22;48368;53.406;6.214;2022-07-06T04:53:10;15.10;99.90
62339;DHT22;48368;53.406;6.214;2022-07-06T04:55:35;15.10;99.90
62339;DHT22;48368;53.406;6.214;2022-07-06T04:58:01;15.30;99.90
62339;DHT22;48368;53.406;6.214;2022-07-06T05:00:27;15.40;99.90
62339;DHT22;48368;53.406;6.214;2022-07-06T05:02:53;15.60;99.90
62339;DHT22;48368;53.406;6.214;2022-07-06T05:05:18;15.80;99.90
62339;DHT22;48368;53.406;6.214;2022-07-06T05:07:44;15.90;99.90
62339;DHT22;48368;53.406;6.214;2022-07-06T05:10:11;16.10;99.90
62339;DHT22;48368;53.406;6.214;2022-07-06T05:12:37;16.20;99.90
62339;DHT22;48368;53.406;6.214;2022-07-06T05:15:03;16.30;99.90
62339;DHT22;48368;53.406;6.214;2022-07-06T05:17:28;16.40;99.90
62339;DHT22;48368;53.406;6.214;2022-07-06T05:19:54;16.60;99.90
62339;DHT22;48368;53.406;6.214;2022-07-06T05:22:20;16.70;99.90
62339;DHT22;48368;53.406;6.214;2022-07-06T05:24:46;16.60;99.90
62339;DHT22;48368;53.406;6.214;2022-07-06T05:27:12;16.60;99.90
62339;DHT22;48368;53.406;6.214;2022-07-06T05:29:37;16.60;99.90
62339;DHT22;48368;53.406;6.214;2022-07-06T05:32:03;16.70;99.90
62339;DHT22;48368;53.406;6.214;2022-07-06T05:34:29;16.80;99.90
62339;DHT22;48368;53.406;6.214;2022-07-06T05:36:54;16.80;99.90
62339;DHT22;48368;53.406;6.214;2022-07-06T05:39:20;16.70;99.90
62339;DHT22;48368;53.406;6.214;2022-07-06T05:41:48;16.80;99.90
62339;DHT22;48368;53.406;6.214;2022-07-06T05:44:14;16.80;99.90
62339;DHT22;48368;53.406;6.214;2022-07-06T05:46:40;16.80;99.90
62339;DHT22;48368;53.406;6.214;2022-07-06T05:49:06;17.00;99.90
62339;DHT22;48368;53.406;6.214;2022-07-06T05:51:50;17.10;99.90
62339;DHT22;48368;53.406;6.214;2022-07-06T05:54:16;17.00;99.90
62339;DHT22;48368;53.406;6.214;2022-07-06T05:56:41;17.10;99.90
62339;DHT22;48368;53.406;6.214;2022-07-06T05:59:07;17.10;99.90
62339;DHT22;48368;53.406;6.214;2022-07-06T06:01:33;17.10;99.90
62339;DHT22;48368;53.406;6.214;2022-07-06T06:03:58;17.30;99.90
62339;DHT22;48368;53.406;6.214;2022-07-06T06:06:26;17.40;99.90
62339;DHT22;48368;53.406;6.214;2022-07-06T06:08:51;17.60;99.90
62339;DHT22;48368;53.406;6.214;2022-07-06T06:11:17;17.80;99.90
62339;DHT22;48368;53.406;6.214;2022-07-06T06:13:43;17.80;99.90
62339;DHT22;48368;53.406;6.214;2022-07-06T06:16:09;18.00;99.90
62339;DHT22;48368;53.406;6.214;2022-07-06T06:18:34;18.00;99.90
62339;DHT22;48368;53.406;6.214;2022-07-06T06:21:00;18.00;99.90
62339;DHT22;48368;53.406;6.214;2022-07-06T06:23:26;18.10;99.90
62339;DHT22;48368;53.406;6.214;2022-07-06T06:25:52;18.20;99.90
62339;DHT22;48368;53.406;6.214;2022-07-06T06:28:17;18.20;99.90
62339;DHT22;48368;53.406;6.214;2022-07-06T06:30:43;18.00;99.90
62339;DHT22;48368;53.406;6.214;2022-07-06T06:33:20;17.90;99.90
62339;DHT22;48368;53.406;6.214;2022-07-06T06:35:51;17.70;99.90
62339;DHT22;48368;53.406;6.214;2022-07-06T06:38:18;17.50;99.90
62339;DHT22;48368;53.406;6.214;2022-07-06T06:40:44;17.50;99.90
62339;DHT22;48368;53.406;6.214;2022-07-06T06:43:10;17.40;99.90
62339;DHT22;48368;53.406;6.214;2022-07-06T06:45:36;17.50;99.90
62339;DHT22;48368;53.406;6.214;2022-07-06T06:48:02;17.70;99.90
62339;DHT22;48368;53.406;6.214;2022-07-06T06:50:28;17.80;99.90
62339;DHT22;48368;53.406;6.214;2022-07-06T06:52:53;18.00;99.90
62339;DHT22;48368;53.406;6.214;2022-07-06T06:55:19;18.10;99.90
62339;DHT22;48368;53.406;6.214;2022-07-06T06:57:45;18.30;99.90
62339;DHT22;48368;53.406;6.214;2022-07-06T07:00:12;18.30;99.90
62339;DHT22;48368;53.406;6.214;2022-07-06T07:02:37;18.40;99.90
62339;DHT22;48368;53.406;6.214;2022-07-06T07:05:04;18.50;99.90
62339;DHT22;48368;53.406;6.214;2022-07-06T07:07:30;18.60;99.90
62339;DHT22;48368;53.406;6.214;2022-07-06T07:09:56;18.80;99.90
62339;DHT22;48368;53.406;6.214;2022-07-06T07:12:22;18.80;99.90
62339;DHT22;48368;53.406;6.214;2022-07-06T07:14:48;18.50;99.90
62339;DHT22;48368;53.406;6.214;2022-07-06T07:17:13;18.40;99.90
62339;DHT22;48368;53.406;6.214;2022-07-06T07:19:40;18.60;99.90
62339;DHT22;48368;53.406;6.214;2022-07-06T07:22:06;18.80;99.90
62339;DHT22;48368;53.406;6.214;2022-07-06T07:24:32;18.90;99.90
62339;DHT22;48368;53.406;6.214;2022-07-06T07:26:57;19.20;99.90
62339;DHT22;48368;53.406;6.214;2022-07-06T07:29:23;19.30;99.90
62339;DHT22;48368;53.406;6.214;2022-07-06T07:31:49;19.40;99.90
62339;DHT22;48368;53.406;6.214;2022-07-06T07:34:15;19.50;99.90
62339;DHT22;48368;53.406;6.214;2022-07-06T07:36:41;19.40;99.90
62339;DHT22;48368;53.406;6.214;2022-07-06T07:39:07;19.30;99.90
62339;DHT22;48368;53.406;6.214;2022-07-06T07:41:32;19.50;99.90
62339;DHT22;48368;53.406;6.214;2022-07-06T07:43:58;19.30;99.90
62339;DHT22;48368;53.406;6.214;2022-07-06T07:46:24;19.50;99.90
62339;DHT22;48368;53.406;6.214;2022-07-06T07:48:49;19.50;99.90
62339;DHT22;48368;53.406;6.214;2022-07-06T07:51:15;19.70;99.90
62339;DHT22;48368;53.406;6.214;2022-07-06T07:53:41;19.80;99.90
62339;DHT22;48368;53.406;6.214;2022-07-06T07:56:06;19.90;99.90
62339;DHT22;48368;53.406;6.214;2022-07-06T07:58:32;19.90;99.90
62339;DHT22;48368;53.406;6.214;2022-07-06T08:00:58;20.00;99.90
62339;DHT22;48368;53.406;6.214;2022-07-06T08:03:23;20.10;99.90
62339;DHT22;48368;53.406;6.214;2022-07-06T08:05:49;20.10;99.90
62339;DHT22;48368;53.406;6.214;2022-07-06T08:08:16;20.10;99.90
62339;DHT22;48368;53.406;6.214;2022-07-06T08:10:41;20.20;99.90
62339;DHT22;48368;53.406;6.214;2022-07-06T08:13:07;20.20;99.90
62339;DHT22;48368;53.406;6.214;2022-07-06T08:15:36;20.00;99.90
62339;DHT22;48368;53.406;6.214;2022-07-06T08:18:03;19.80;99.90
62339;DHT22;48368;53.406;6.214;2022-07-06T08:20:29;19.60;99.90
62339;DHT22;48368;53.406;6.214;2022-07-06T08:22:55;19.60;99.90
62339;DHT22;48368;53.406;6.214;2022-07-06T08:25:21;19.60;99.90
62339;DHT22;48368;53.406;6.214;2022-07-06T08:27:47;19.60;99.90
62339;DHT22;48368;53.406;6.214;2022-07-06T08:30:13;19.40;99.90
62339;DHT22;48368;53.406;6.214;2022-07-06T08:32:40;19.40;99.90
62339;DHT22;48368;53.406;6.214;2022-07-06T08:35:07;19.50;99.90
62339;DHT22;48368;53.406;6.214;2022-07-06T08:37:32;19.60;99.90
62339;DHT22;48368;53.406;6.214;2022-07-06T08:39:58;19.40;99.90
62339;DHT22;48368;53.406;6.214;2022-07-06T08:42:31;19.40;99.90
62339;DHT22;48368;53.406;6.214;2022-07-06T08:45:02;19.40;99.90
62339;DHT22;48368;53.406;6.214;2022-07-06T08:47:28;19.40;99.90
62339;DHT22;48368;53.406;6.214;2022-07-06T08:49:55;19.40;99.90
62339;DHT22;48368;53.406;6.214;2022-07-06T08:52:23;19.20;99.90
62339;DHT22;48368;53.406;6.214;2022-07-06T08:54:49;19.10;99.90
62339;DHT22;48368;53.406;6.214;2022-07-06T08:57:14;19.20;99.90
62339;DHT22;48368;53.406;6.214;2022-07-06T08:59:40;19.30;99.90
62339;DHT22;48368;53.406;6.214;2022-07-06T09:02:07;19.50;99.90
62339;DHT22;48368;53.406;6.214;2022-07-06T09:04:36;19.70;99.90
62339;DHT22;48368;53.406;6.214;2022-07-06T09:07:02;20.00;99.90
62339;DHT22;48368;53.406;6.214;2022-07-06T09:09:29;20.30;99.90
62339;DHT22;48368;53.406;6.214;2022-07-06T09:11:56;20.30;99.90
62339;DHT22;48368;53.406;6.214;2022-07-06T09:14:22;20.20;99.90
62339;DHT22;48368;53.406;6.214;2022-07-06T09:16:52;19.80;99.90
62339;DHT22;48368;53.406;6.214;2022-07-06T09:19:26;19.70;99.90
62339;DHT22;48368;53.406;6.214;2022-07-06T09:21:52;19.40;99.90
62339;DHT22;48368;53.406;6.214;2022-07-06T09:24:19;19.40;99.90
62339;DHT22;48368;53.406;6.214;2022-07-06T09:26:47;19.20;99.90
62339;DHT22;48368;53.406;6.214;2022-07-06T09:29:13;19.40;99.90
62339;DHT22;48368;53.406;6.214;2022-07-06T09:31:39;19.60;99.90
62339;DHT22;48368;53.406;6.214;2022-07-06T09:34:07;19.80;99.90
62339;DHT22;48368;53.406;6.214;2022-07-06T09:36:49;19.90;99.90
62339;DHT22;48368;53.406;6.214;2022-07-06T09:39:20;20.10;99.90
62339;DHT22;48368;53.406;6.214;2022-07-06T09:41:47;20.10;99.90
62339;DHT22;48368;53.406;6.214;2022-07-06T09:44:18;20.30;99.90
62339;DHT22;48368;53.406;6.214;2022-07-06T09:46:46;20.30;99.90
62339;DHT22;48368;53.406;6.214;2022-07-06T09:49:12;20.40;99.90
62339;DHT22;48368;53.406;6.214;2022-07-06T09:51:41;20.50;99.90
62339;DHT22;48368;53.406;6.214;2022-07-06T09:54:08;20.60;99.90
62339;DHT22;48368;53.406;6.214;2022-07-06T09:56:41;20.80;99.90
62339;DHT22;48368;53.406;6.214;2022-07-06T09:59:21;20.90;99.90
62339;DHT22;48368;53.406;6.214;2022-07-06T10:01:51;21.10;99.90
62339;DHT22;48368;53.406;6.214;2022-07-06T10:04:17;21.00;99.90
62339;DHT22;48368;53.406;6.214;2022-07-06T10:06:44;21.00;99.90
62339;DHT22;48368;53.406;6.214;2022-07-06T10:09:11;20.90;99.90
62339;DHT22;48368;53.406;6.214;2022-07-06T10:11:45;21.10;99.90
62339;DHT22;48368;53.406;6.214;2022-07-06T10:14:17;21.20;99.90
62339;DHT22;48368;53.406;6.214;2022-07-06T10:16:43;21.40;99.90
62339;DHT22;48368;53.406;6.214;2022-07-06T10:19:10;21.20;99.90
62339;DHT22;48368;53.406;6.214;2022-07-06T10:21:37;20.90;99.90
62339;DHT22;48368;53.406;6.214;2022-07-06T10:24:04;20.70;99.90
62339;DHT22;48368;53.406;6.214;2022-07-06T10:26:31;20.70;99.90
62339;DHT22;48368;53.406;6.214;2022-07-06T10:29:01;20.90;99.90
62339;DHT22;48368;53.406;6.214;2022-07-06T10:31:29;21.00;99.90
62339;DHT22;48368;53.406;6.214;2022-07-06T10:33:56;20.90;99.90
62339;DHT22;48368;53.406;6.214;2022-07-06T10:36:24;20.80;99.90
62339;DHT22;48368;53.406;6.214;2022-07-06T10:38:51;20.80;99.90
62339;DHT22;48368;53.406;6.214;2022-07-06T10:41:17;21.00;99.90
62339;DHT22;48368;53.406;6.214;2022-07-06T10:43:46;21.00;99.90
62339;DHT22;48368;53.406;6.214;2022-07-06T10:46:13;20.90;99.90
62339;DHT22;48368;53.406;6.214;2022-07-06T10:48:41;20.80;99.90
62339;DHT22;48368;53.406;6.214;2022-07-06T10:51:07;21.00;99.90
62339;DHT22;48368;53.406;6.214;2022-07-06T10:53:38;21.20;99.90
62339;DHT22;48368;53.406;6.214;2022-07-06T10:58:38;21.00;99.90
62339;DHT22;48368;53.406;6.214;2022-07-06T11:01:11;21.00;99.90
62339;DHT22;48368;53.406;6.214;2022-07-06T11:03:42;21.20;99.90
62339;DHT22;48368;53.406;6.214;2022-07-06T11:06:18;21.50;99.90
62339;DHT22;48368;53.406;6.214;2022-07-06T11:08:57;21.70;99.90
62339;DHT22;48368;53.406;6.214;2022-07-06T11:16:27;22.50;99.90
62339;DHT22;48368;53.406;6.214;2022-07-06T11:19:09;22.60;99.90
62339;DHT22;48368;53.406;6.214;2022-07-06T11:22:04;22.70;99.90
62339;DHT22;48368;53.406;6.214;2022-07-06T11:24:32;22.60;99.90
62339;DHT22;48368;53.406;6.214;2022-07-06T11:26:58;22.70;99.90
62339;DHT22;48368;53.406;6.214;2022-07-06T11:29:26;22.70;99.90
62339;DHT22;48368;53.406;6.214;2022-07-06T11:31:55;22.40;99.90
62339;DHT22;48368;53.406;6.214;2022-07-06T11:34:31;22.20;99.90
62339;DHT22;48368;53.406;6.214;2022-07-06T11:37:02;22.30;99.90
62339;DHT22;48368;53.406;6.214;2022-07-06T11:39:30;22.10;99.90
62339;DHT22;48368;53.406;6.214;2022-07-06T11:41:57;22.30;99.90
62339;DHT22;48368;53.406;6.214;2022-07-06T11:44:23;22.60;99.90
62339;DHT22;48368;53.406;6.214;2022-07-06T11:46:50;22.60;99.90
62339;DHT22;48368;53.406;6.214;2022-07-06T11:49:16;22.60;99.90
62339;DHT22;48368;53.406;6.214;2022-07-06T11:51:44;22.30;99.90
62339;DHT22;48368;53.406;6.214;2022-07-06T11:54:19;22.00;99.90
62339;DHT22;48368;53.406;6.214;2022-07-06T11:56:56;21.90;99.90
62339;DHT22;48368;53.406;6.214;2022-07-06T11:59:25;21.80;99.90
62339;DHT22;48368;53.406;6.214;2022-07-06T12:02:11;21.90;99.90
62339;DHT22;48368;53.406;6.214;2022-07-06T12:04:39;21.70;99.90
62339;DHT22;48368;53.406;6.214;2022-07-06T12:07:13;21.50;99.90
62339;DHT22;48368;53.406;6.214;2022-07-06T12:09:40;21.50;99.90
62339;DHT22;48368;53.406;6.214;2022-07-06T12:12:08;21.50;99.90
62339;DHT22;48368;53.406;6.214;2022-07-06T12:14:35;21.60;99.90
62339;DHT22;48368;53.406;6.214;2022-07-06T12:17:08;21.70;99.90
62339;DHT22;48368;53.406;6.214;2022-07-06T12:19:34;21.60;99.90
62339;DHT22;48368;53.406;6.214;2022-07-06T12:22:00;21.60;99.90
62339;DHT22;48368;53.406;6.214;2022-07-06T12:24:32;21.60;99.90
62339;DHT22;48368;53.406;6.214;2022-07-06T12:27:08;21.50;99.90
62339;DHT22;48368;53.406;6.214;2022-07-06T12:29:34;21.40;99.90
62339;DHT22;48368;53.406;6.214;2022-07-06T12:32:00;21.30;99.90
62339;DHT22;48368;53.406;6.214;2022-07-06T12:34:28;21.20;99.90
62339;DHT22;48368;53.406;6.214;2022-07-06T12:36:57;21.20;99.90
62339;DHT22;48368;53.406;6.214;2022-07-06T12:39:25;21.10;99.90
62339;DHT22;48368;53.406;6.214;2022-07-06T12:42:13;21.00;99.90
62339;DHT22;48368;53.406;6.214;2022-07-06T12:44:44;20.80;99.90
62339;DHT22;48368;53.406;6.214;2022-07-06T12:47:10;20.80;99.90
62339;DHT22;48368;53.406;6.214;2022-07-06T12:49:38;20.80;99.90
62339;DHT22;48368;53.406;6.214;2022-07-06T12:52:11;20.90;99.90
62339;DHT22;48368;53.406;6.214;2022-07-06T12:54:47;20.80;99.90
62339;DHT22;48368;53.406;6.214;2022-07-06T12:57:19;20.70;99.90
62339;DHT22;48368;53.406;6.214;2022-07-06T13:02:27;20.80;99.90
62339;DHT22;48368;53.406;6.214;2022-07-06T13:05:04;20.70;99.90
62339;DHT22;48368;53.406;6.214;2022-07-06T13:07:31;20.70;99.90
62339;DHT22;48368;53.406;6.214;2022-07-06T13:09:58;20.60;99.90
62339;DHT22;48368;53.406;6.214;2022-07-06T13:12:24;20.50;99.90
62339;DHT22;48368;53.406;6.214;2022-07-06T13:14:50;20.50;99.90
62339;DHT22;48368;53.406;6.214;2022-07-06T13:17:16;20.60;99.90
62339;DHT22;48368;53.406;6.214;2022-07-06T13:19:42;20.50;99.90
62339;DHT22;48368;53.406;6.214;2022-07-06T13:22:08;20.40;99.90
62339;DHT22;48368;53.406;6.214;2022-07-06T13:24:34;20.30;99.90
62339;DHT22;48368;53.406;6.214;2022-07-06T13:26:59;20.10;99.90
62339;DHT22;48368;53.406;6.214;2022-07-06T13:29:25;19.90;99.90
62339;DHT22;48368;53.406;6.214;2022-07-06T13:31:51;19.90;99.90
62339;DHT22;48368;53.406;6.214;2022-07-06T13:34:17;19.90;99.90
62339;DHT22;48368;53.406;6.214;2022-07-06T13:36:42;19.60;99.90
62339;DHT22;48368;53.406;6.214;2022-07-06T13:39:10;19.50;99.90
62339;DHT22;48368;53.406;6.214;2022-07-06T13:41:36;19.50;99.90
62339;DHT22;48368;53.406;6.214;2022-07-06T13:44:02;19.40;99.90
62339;DHT22;48368;53.406;6.214;2022-07-06T13:46:29;19.30;99.90
62339;DHT22;48368;53.406;6.214;2022-07-06T13:48:56;19.30;99.90
62339;DHT22;48368;53.406;6.214;2022-07-06T13:51:23;19.40;99.90
62339;DHT22;48368;53.406;6.214;2022-07-06T13:53:50;19.50;99.90
62339;DHT22;48368;53.406;6.214;2022-07-06T13:56:16;19.50;99.90
62339;DHT22;48368;53.406;6.214;2022-07-06T13:58:42;19.40;99.90
62339;DHT22;48368;53.406;6.214;2022-07-06T14:01:08;19.40;99.90
62339;DHT22;48368;53.406;6.214;2022-07-06T14:03:34;19.10;99.90
62339;DHT22;48368;53.406;6.214;2022-07-06T14:06:03;19.10;99.90
62339;DHT22;48368;53.406;6.214;2022-07-06T14:08:30;19.10;99.90
62339;DHT22;48368;53.406;6.214;2022-07-06T14:10:56;19.00;99.90
62339;DHT22;48368;53.406;6.214;2022-07-06T14:13:22;18.90;99.90
62339;DHT22;48368;53.406;6.214;2022-07-06T14:15:49;18.70;99.90
62339;DHT22;48368;53.406;6.214;2022-07-06T14:18:15;18.60;99.90
62339;DHT22;48368;53.406;6.214;2022-07-06T14:20:44;18.50;99.90
62339;DHT22;48368;53.406;6.214;2022-07-06T14:23:10;18.40;99.90
62339;DHT22;48368;53.406;6.214;2022-07-06T14:25:36;18.30;99.90
62339;DHT22;48368;53.406;6.214;2022-07-06T14:28:02;18.30;99.90
62339;DHT22;48368;53.406;6.214;2022-07-06T14:30:28;18.30;99.90
62339;DHT22;48368;53.406;6.214;2022-07-06T14:32:54;18.30;99.90
62339;DHT22;48368;53.406;6.214;2022-07-06T14:35:20;18.40;99.90
62339;DHT22;48368;53.406;6.214;2022-07-06T14:37:47;18.40;99.90
62339;DHT22;48368;53.406;6.214;2022-07-06T14:40:13;18.20;99.90
62339;DHT22;48368;53.406;6.214;2022-07-06T14:42:39;18.20;99.90
62339;DHT22;48368;53.406;6.214;2022-07-06T14:45:05;18.10;99.90
62339;DHT22;48368;53.406;6.214;2022-07-06T14:47:30;18.10;99.90
62339;DHT22;48368;53.406;6.214;2022-07-06T14:49:56;18.10;99.90
62339;DHT22;48368;53.406;6.214;2022-07-06T14:52:22;18.00;99.90
62339;DHT22;48368;53.406;6.214;2022-07-06T14:54:47;17.70;99.90
62339;DHT22;48368;53.406;6.214;2022-07-06T14:57:13;17.40;99.90
62339;DHT22;48368;53.406;6.214;2022-07-06T14:59:39;17.30;99.90
62339;DHT22;48368;53.406;6.214;2022-07-06T15:02:04;17.30;99.90
62339;DHT22;48368;53.406;6.214;2022-07-06T15:04:30;17.20;99.90
62339;DHT22;48368;53.406;6.214;2022-07-06T15:06:56;17.10;99.90
62339;DHT22;48368;53.406;6.214;2022-07-06T15:09:21;17.00;99.90
62339;DHT22;48368;53.406;6.214;2022-07-06T15:11:47;17.00;99.90
62339;DHT22;48368;53.406;6.214;2022-07-06T15:14:13;17.00;99.90
62339;DHT22;48368;53.406;6.214;2022-07-06T15:16:41;17.00;99.90
62339;DHT22;48368;53.406;6.214;2022-07-06T15:19:07;17.00;99.90
62339;DHT22;48368;53.406;6.214;2022-07-06T15:21:33;17.10;99.90
62339;DHT22;48368;53.406;6.214;2022-07-06T15:23:59;17.10;99.90
62339;DHT22;48368;53.406;6.214;2022-07-06T15:26:24;17.00;99.90
62339;DHT22;48368;53.406;6.214;2022-07-06T15:28:51;17.00;99.90
62339;DHT22;48368;53.406;6.214;2022-07-06T15:31:16;17.00;99.90
62339;DHT22;48368;53.406;6.214;2022-07-06T15:33:42;17.10;99.90
62339;DHT22;48368;53.406;6.214;2022-07-06T15:36:08;17.10;99.90
62339;DHT22;48368;53.406;6.214;2022-07-06T15:38:33;17.10;99.90